createdAt,value
2023-05-02T00:00:26.255Z,30.40
2023-05-02T00:02:53.306Z,29.74
2023-05-02T00:05:20.242Z,28.47
2023-05-02T00:07:47.856Z,28.95
2023-05-02T00:10:14.526Z,28.90
2023-05-02T00:12:41.185Z,30.06
2023-05-02T00:15:08.208Z,29.21
2023-05-02T00:17:34.839Z,28.09
2023-05-02T00:20:01.805Z,26.22
2023-05-02T00:22:28.797Z,22.87
2023-05-02T00:24:58.754Z,19.92
2023-05-02T00:27:25.702Z,16.95
2023-05-02T00:29:53.318Z,15.60
2023-05-02T00:32:19.950Z,12.73
2023-05-02T00:34:46.680Z,11.72
2023-05-02T00:37:13.648Z,12.59
2023-05-02T00:39:40.279Z,13.86
2023-05-02T00:42:07.316Z,16.48
2023-05-02T00:44:33.956Z,19.03
2023-05-02T00:47:01.698Z,19.92
2023-05-02T00:49:28.815Z,18.44
2023-05-02T00:51:55.495Z,16.74
2023-05-02T00:54:22.192Z,14.54
2023-05-02T00:56:48.972Z,14.13
2023-05-02T00:59:16.766Z,13.66
2023-05-02T01:01:58.898Z,14.89
2023-05-02T01:04:25.564Z,14.53
2023-05-02T01:07:04.252Z,14.87
2023-05-02T01:09:53.578Z,17.41
2023-05-02T01:12:35.253Z,18.83
2023-05-02T01:15:06.025Z,19.69
2023-05-02T01:17:33.144Z,21.09
2023-05-02T01:20:03.929Z,20.88
2023-05-02T01:22:32.013Z,21.53
2023-05-02T01:25:06.720Z,21.96
2023-05-02T01:27:52.029Z,21.47
2023-05-02T01:30:20.651Z,22.15
2023-05-02T01:32:47.978Z,21.20
2023-05-02T01:35:16.572Z,21.66
2023-05-02T01:37:45.482Z,21.83
2023-05-02T01:40:15.423Z,23.40
2023-05-02T01:42:44.726Z,23.49
2023-05-02T01:45:12.740Z,24.48
2023-05-02T01:47:40.634Z,25.32
2023-05-02T01:50:11.761Z,25.37
2023-05-02T01:52:40.113Z,25.06
2023-05-02T01:55:09.472Z,24.59
2023-05-02T01:57:39.711Z,25.25
2023-05-02T02:00:09.662Z,25.13
2023-05-02T02:02:44.542Z,24.03
2023-05-02T02:05:14.637Z,24.02
2023-05-02T02:07:43.218Z,24.51
2023-05-02T02:10:09.995Z,24.39
2023-05-02T02:12:40.375Z,24.76
2023-05-02T02:15:12.237Z,24.39
2023-05-02T02:18:02.214Z,24.22
2023-05-02T02:20:30.147Z,24.05
2023-05-02T02:22:58.031Z,23.10
2023-05-02T02:25:27.001Z,24.02
2023-05-02T02:27:54.134Z,22.31
2023-05-02T02:30:20.908Z,21.27
2023-05-02T02:32:47.621Z,21.31
2023-05-02T02:35:14.770Z,20.89
2023-05-02T02:37:47.005Z,20.43
2023-05-02T02:40:29.622Z,20.24
2023-05-02T02:43:14.659Z,21.00
2023-05-02T02:45:44.008Z,18.88
2023-05-02T02:48:10.627Z,18.96
2023-05-02T02:50:55.946Z,19.15
2023-05-02T02:53:26.513Z,18.26
2023-05-02T02:56:10.518Z,17.75
2023-05-02T02:58:37.109Z,17.22
2023-05-02T03:01:06.334Z,16.71
2023-05-02T03:03:34.429Z,16.11
2023-05-02T03:06:03.798Z,15.36
2023-05-02T03:08:39.067Z,12.20
2023-05-02T03:11:06.182Z,8.72
2023-05-02T03:13:32.791Z,7.66
2023-05-02T03:16:18.258Z,6.85
2023-05-02T03:18:45.513Z,6.55
2023-05-02T03:21:12.202Z,6.39
2023-05-02T03:23:38.929Z,6.30
2023-05-02T03:26:06.144Z,6.45
2023-05-02T03:28:33.929Z,5.77
2023-05-02T03:31:01.278Z,6.05
2023-05-02T03:33:28.961Z,5.78
2023-05-02T03:35:55.582Z,6.22
2023-05-02T03:38:22.715Z,5.63
2023-05-02T03:40:50.248Z,5.47
2023-05-02T03:43:16.811Z,5.07
2023-05-02T03:48:36.814Z,5.19
2023-05-02T03:51:04.848Z,4.68
2023-05-02T03:53:38.797Z,4.17
2023-05-02T03:56:06.428Z,3.68
2023-05-02T03:58:42.322Z,3.56
2023-05-02T04:01:16.089Z,3.60
2023-05-02T04:03:45.280Z,3.59
2023-05-02T04:06:13.741Z,3.50
2023-05-02T04:08:43.431Z,3.25
2023-05-02T04:11:10.097Z,3.35
2023-05-02T04:13:36.924Z,3.07
2023-05-02T04:16:04.726Z,3.13
2023-05-02T04:18:34.119Z,3.49
2023-05-02T04:21:02.453Z,3.18
2023-05-02T04:23:29.698Z,3.76
2023-05-02T04:25:59.923Z,3.19
2023-05-02T04:28:34.980Z,3.45
2023-05-02T04:31:03.690Z,3.10
2023-05-02T04:33:31.649Z,3.39
2023-05-02T04:35:59.029Z,2.96
2023-05-02T04:38:25.659Z,3.12
2023-05-02T04:40:52.652Z,2.92
2023-05-02T04:43:25.961Z,3.33
2023-05-02T04:45:58.920Z,3.28
2023-05-02T04:48:33.660Z,2.93
2023-05-02T04:51:00.265Z,2.73
2023-05-02T04:53:28.691Z,3.08
2023-05-02T04:55:55.685Z,2.85
2023-05-02T04:58:22.948Z,2.67
2023-05-02T05:00:56.881Z,2.78
2023-05-02T05:03:24.741Z,2.86
2023-05-02T05:05:51.778Z,2.72
2023-05-02T05:08:20.243Z,2.97
2023-05-02T05:10:47.036Z,2.67
2023-05-02T05:13:14.008Z,2.76
2023-05-02T05:15:42.352Z,3.05
2023-05-02T05:18:10.081Z,3.05
2023-05-02T05:20:37.381Z,3.34
2023-05-02T05:23:04.830Z,3.23
2023-05-02T05:25:32.428Z,3.88
2023-05-02T05:28:00.279Z,3.80
2023-05-02T05:30:30.898Z,3.38
2023-05-02T05:33:01.581Z,3.76
2023-05-02T05:35:28.267Z,3.38
2023-05-02T05:37:55.998Z,3.11
2023-05-02T05:40:22.625Z,4.01
2023-05-02T05:42:54.800Z,3.98
2023-05-02T05:45:27.166Z,3.86
2023-05-02T05:47:54.340Z,3.25
2023-05-02T05:50:21.189Z,3.52
2023-05-02T05:52:49.264Z,2.98
2023-05-02T05:55:16.267Z,2.83
2023-05-02T05:57:43.248Z,2.88
2023-05-02T06:00:10.978Z,2.47
2023-05-02T06:02:45.510Z,2.07
2023-05-02T06:05:19.232Z,2.69
2023-05-02T06:07:45.880Z,2.77
2023-05-02T06:10:12.839Z,2.54
2023-05-02T06:12:42.456Z,2.26
2023-05-02T06:15:10.675Z,2.44
2023-05-02T06:17:37.856Z,2.35
2023-05-02T06:20:04.829Z,2.20
2023-05-02T06:22:31.411Z,2.29
2023-05-02T06:24:58.030Z,2.59
2023-05-02T06:27:24.633Z,2.40
2023-05-02T06:29:51.459Z,2.64
2023-05-02T06:32:18.508Z,2.48
2023-05-02T06:34:45.290Z,2.99
2023-05-02T06:37:11.830Z,3.03
2023-05-02T06:39:38.550Z,2.90
2023-05-02T06:42:05.088Z,2.78
2023-05-02T06:44:33.418Z,2.69
2023-05-02T06:47:00.028Z,2.68
2023-05-02T06:49:26.645Z,2.90
2023-05-02T06:51:53.199Z,2.90
2023-05-02T06:54:21.738Z,3.13
2023-05-02T06:56:48.392Z,3.22
2023-05-02T06:59:16.885Z,3.21
2023-05-02T07:01:43.970Z,3.07
2023-05-02T07:04:11.009Z,2.96
2023-05-02T07:06:37.794Z,3.07
2023-05-02T07:09:04.320Z,3.13
2023-05-02T07:11:30.964Z,3.28
2023-05-02T07:13:57.889Z,3.19
2023-05-02T07:16:24.573Z,3.27
2023-05-02T07:18:51.130Z,2.96
2023-05-02T07:21:19.111Z,3.12
2023-05-02T07:23:45.739Z,3.39
2023-05-02T07:26:12.403Z,3.59
2023-05-02T07:28:38.925Z,3.63
2023-05-02T07:31:05.540Z,3.55
2023-05-02T07:33:32.105Z,3.72
2023-05-02T07:35:58.711Z,3.88
2023-05-02T07:38:27.230Z,4.08
2023-05-02T07:40:53.801Z,3.96
2023-05-02T07:43:20.452Z,4.03
2023-05-02T07:45:47.019Z,4.10
2023-05-02T07:48:13.708Z,4.04
2023-05-02T07:50:40.394Z,4.12
2023-05-02T07:53:07.471Z,3.92
2023-05-02T07:55:34.060Z,3.86
2023-05-02T07:58:00.575Z,4.04
2023-05-02T08:00:27.436Z,4.12
2023-05-02T08:02:54.077Z,3.89
2023-05-02T08:05:20.776Z,3.67
2023-05-02T08:07:47.332Z,3.00
2023-05-02T08:10:13.905Z,3.04
2023-05-02T08:12:41.478Z,3.00
2023-05-02T08:15:10.253Z,2.71
2023-05-02T08:17:36.799Z,2.80
2023-05-02T08:20:03.630Z,2.71
2023-05-02T08:22:30.270Z,2.91
2023-05-02T08:24:56.799Z,2.48
2023-05-02T08:27:23.343Z,2.21
2023-05-02T08:29:49.890Z,2.57
2023-05-02T08:32:16.647Z,2.20
2023-05-02T08:34:43.400Z,2.55
2023-05-02T08:37:10.414Z,2.54
2023-05-02T08:39:37.001Z,2.25
2023-05-02T08:42:07.561Z,2.22
2023-05-02T08:44:34.078Z,2.17
2023-05-02T08:47:00.750Z,1.78
2023-05-02T08:49:30.948Z,2.09
2023-05-02T08:51:59.676Z,2.25
2023-05-02T08:54:27.126Z,2.32
2023-05-02T08:56:54.627Z,2.74
2023-05-02T08:59:21.156Z,2.72
2023-05-02T09:01:49.746Z,2.54
2023-05-02T09:04:18.277Z,2.67
2023-05-02T09:06:45.014Z,2.67
2023-05-02T09:09:11.726Z,3.24
2023-05-02T09:11:38.621Z,3.49
2023-05-02T09:14:14.305Z,3.39
2023-05-02T09:16:40.940Z,3.37
2023-05-02T09:19:07.661Z,3.45
2023-05-02T09:21:39.888Z,3.29
2023-05-02T09:24:20.035Z,3.04
2023-05-02T09:26:58.926Z,3.03
2023-05-02T09:29:27.285Z,3.09
2023-05-02T09:31:56.307Z,3.22
2023-05-02T09:34:23.550Z,3.27
2023-05-02T09:36:51.968Z,2.83
2023-05-02T09:39:22.603Z,2.75
2023-05-02T09:41:51.346Z,2.86
2023-05-02T09:44:19.668Z,2.75
2023-05-02T09:46:48.770Z,2.67
2023-05-02T09:49:18.596Z,2.57
2023-05-02T09:51:46.498Z,2.37
2023-05-02T09:54:13.516Z,2.21
2023-05-02T09:56:58.984Z,2.00
2023-05-02T09:59:25.844Z,2.13
2023-05-02T10:02:00.042Z,2.24
2023-05-02T10:04:27.821Z,2.25
2023-05-02T10:06:54.963Z,2.17
2023-05-02T10:09:22.051Z,2.14
2023-05-02T10:11:51.789Z,2.05
2023-05-02T10:14:20.297Z,2.19
2023-05-02T10:16:50.145Z,2.13
2023-05-02T10:19:21.219Z,2.42
2023-05-02T10:21:47.939Z,2.09
2023-05-02T10:24:15.772Z,2.26
2023-05-02T10:26:43.117Z,2.06
2023-05-02T10:29:11.427Z,2.17
2023-05-02T10:31:39.775Z,2.33
2023-05-02T10:34:10.626Z,2.21
2023-05-02T10:36:37.323Z,2.50
2023-05-02T10:39:04.088Z,2.55
2023-05-02T10:41:33.365Z,2.29
2023-05-02T10:44:01.853Z,2.47
2023-05-02T10:46:34.367Z,2.35
2023-05-02T10:49:05.143Z,2.47
2023-05-02T10:51:32.536Z,2.55
2023-05-02T10:54:20.456Z,2.44
2023-05-02T10:57:08.517Z,2.52
2023-05-02T10:59:37.325Z,2.64
2023-05-02T11:02:07.184Z,2.67
2023-05-02T11:04:52.891Z,2.65
2023-05-02T11:07:19.462Z,2.88
2023-05-02T11:09:46.029Z,3.09
2023-05-02T11:12:32.510Z,3.04
2023-05-02T11:14:59.548Z,3.04
2023-05-02T11:17:27.040Z,3.08
2023-05-02T11:19:56.421Z,2.98
2023-05-02T11:22:27.964Z,2.95
2023-05-02T11:24:54.506Z,3.08
2023-05-02T11:27:30.374Z,3.05
2023-05-02T11:29:58.162Z,2.93
2023-05-02T11:32:27.275Z,3.23
2023-05-02T11:34:55.584Z,2.88
2023-05-02T11:37:22.269Z,2.90
2023-05-02T11:39:48.987Z,3.06
2023-05-02T11:42:32.198Z,3.04
2023-05-02T11:45:00.088Z,3.40
2023-05-02T11:47:27.640Z,3.27
2023-05-02T11:49:58.022Z,3.01
2023-05-02T11:52:24.929Z,3.41
2023-05-02T11:54:56.023Z,3.42
2023-05-02T11:57:23.226Z,3.18
2023-05-02T11:59:53.545Z,3.25
2023-05-02T12:02:21.423Z,3.25
2023-05-02T12:04:48.094Z,3.02
2023-05-02T12:07:15.052Z,3.13
2023-05-02T12:09:54.262Z,3.04
2023-05-02T12:12:21.511Z,3.57
2023-05-02T12:14:48.699Z,3.16
2023-05-02T12:17:16.252Z,3.04
2023-05-02T12:19:43.305Z,3.55
2023-05-02T12:22:10.687Z,3.52
2023-05-02T12:24:37.478Z,3.67
2023-05-02T12:27:14.626Z,4.01
2023-05-02T12:29:42.263Z,3.65
2023-05-02T12:32:09.108Z,3.57
2023-05-02T12:34:37.406Z,3.73
2023-05-02T12:37:04.639Z,3.82
2023-05-02T12:39:37.188Z,3.74
2023-05-02T12:42:09.808Z,3.57
2023-05-02T12:44:37.139Z,4.05
2023-05-02T12:47:03.780Z,3.66
2023-05-02T12:49:30.421Z,3.43
2023-05-02T12:51:57.371Z,3.77
2023-05-02T12:54:24.432Z,3.61
2023-05-02T12:56:52.167Z,3.60
2023-05-02T12:59:27.088Z,3.72
2023-05-02T13:01:53.600Z,3.91
2023-05-02T13:04:20.285Z,3.61
2023-05-02T13:06:47.252Z,4.05
2023-05-02T13:09:13.879Z,3.89
2023-05-02T13:11:40.412Z,3.60
2023-05-02T13:14:07.003Z,3.71
2023-05-02T13:16:34.673Z,3.58
2023-05-02T13:19:01.402Z,3.77
2023-05-02T13:21:27.903Z,3.94
2023-05-02T13:23:55.407Z,3.84
2023-05-02T13:26:21.908Z,4.14
2023-05-02T13:28:48.447Z,4.10
2023-05-02T13:31:15.036Z,4.24
2023-05-02T13:33:41.595Z,3.60
2023-05-02T13:36:08.349Z,3.89
2023-05-02T13:38:34.962Z,3.68
2023-05-02T13:41:01.539Z,3.82
2023-05-02T13:43:28.065Z,4.00
2023-05-02T13:45:54.646Z,3.84
2023-05-02T13:48:21.295Z,4.16
2023-05-02T13:50:47.839Z,3.92
2023-05-02T13:53:14.422Z,4.23
2023-05-02T13:55:40.993Z,3.77
2023-05-02T13:58:07.923Z,3.97
2023-05-02T14:00:34.674Z,4.19
2023-05-02T14:03:01.306Z,3.89
2023-05-02T14:05:28.035Z,4.27
2023-05-02T14:07:54.579Z,4.47
2023-05-02T14:10:21.200Z,4.41
2023-05-02T14:12:47.931Z,4.56
2023-05-02T14:15:14.805Z,4.68
2023-05-02T14:17:41.416Z,4.88
2023-05-02T14:20:10.388Z,4.82
2023-05-02T14:22:37.015Z,5.00
2023-05-02T14:25:03.611Z,4.83
2023-05-02T14:27:30.416Z,4.42
2023-05-02T14:29:56.924Z,4.20
2023-05-02T14:32:23.602Z,4.43
2023-05-02T14:34:50.101Z,4.32
2023-05-02T14:37:16.635Z,4.33
2023-05-02T14:39:46.320Z,4.77
2023-05-02T14:42:13.971Z,4.15
2023-05-02T14:44:41.965Z,4.54
2023-05-02T14:47:08.652Z,4.27
2023-05-02T14:49:35.230Z,4.48
2023-05-02T14:52:01.753Z,4.39
2023-05-02T14:54:30.265Z,4.44
2023-05-02T14:56:57.016Z,4.38
2023-05-02T14:59:23.710Z,4.66
2023-05-02T15:01:51.390Z,4.79
2023-05-02T15:04:19.577Z,4.83
2023-05-02T15:06:48.154Z,4.71
2023-05-02T15:09:16.004Z,4.49
2023-05-02T15:11:42.658Z,4.66
2023-05-02T15:14:09.228Z,4.58
2023-05-02T15:16:37.456Z,4.42
2023-05-02T15:19:04.146Z,4.74
2023-05-02T15:21:30.934Z,4.54
2023-05-02T15:23:57.670Z,4.71
2023-05-02T15:26:26.003Z,4.59
2023-05-02T15:28:52.812Z,4.36
2023-05-02T15:31:19.402Z,4.42
2023-05-02T15:33:46.162Z,4.26
2023-05-02T15:36:13.052Z,4.47
2023-05-02T15:38:42.250Z,4.46
2023-05-02T15:41:10.339Z,4.60
2023-05-02T15:43:37.554Z,4.53
2023-05-02T15:46:04.233Z,4.36
2023-05-02T15:48:35.257Z,4.65
2023-05-02T15:51:02.816Z,4.59
2023-05-02T15:53:29.484Z,4.25
2023-05-02T15:55:56.057Z,4.78
2023-05-02T15:58:22.704Z,4.76
2023-05-02T16:00:49.243Z,4.25
2023-05-02T16:03:15.940Z,4.82
2023-05-02T16:05:42.569Z,4.50
2023-05-02T16:08:10.263Z,4.58
2023-05-02T16:10:39.092Z,4.84
2023-05-02T16:13:05.683Z,4.32
2023-05-02T16:15:32.264Z,4.70
2023-05-02T16:17:58.914Z,4.35
2023-05-02T16:20:25.870Z,4.11
2023-05-02T16:22:52.372Z,4.41
2023-05-02T16:25:19.065Z,4.25
2023-05-02T16:27:45.661Z,3.91
2023-05-02T16:30:12.616Z,4.02
2023-05-02T16:32:39.214Z,4.43
2023-05-02T16:35:07.437Z,4.33
2023-05-02T16:37:36.819Z,4.15
2023-05-02T16:40:07.585Z,4.24
2023-05-02T16:42:34.759Z,3.78
2023-05-02T16:45:01.490Z,4.09
2023-05-02T16:47:28.331Z,4.10
2023-05-02T16:49:58.244Z,4.19
2023-05-02T16:52:25.638Z,4.08
2023-05-02T16:54:52.426Z,3.77
2023-05-02T16:57:22.120Z,4.03
2023-05-02T16:59:49.503Z,3.88
2023-05-02T17:02:16.731Z,3.80
2023-05-02T17:04:43.820Z,4.03
2023-05-02T17:07:13.163Z,3.98
2023-05-02T17:09:41.325Z,3.90
2023-05-02T17:12:10.278Z,3.75
2023-05-02T17:14:37.999Z,3.43
2023-05-02T17:17:04.634Z,3.51
2023-05-02T17:19:31.396Z,3.91
2023-05-02T17:21:59.275Z,3.75
2023-05-02T17:24:26.067Z,3.55
2023-05-02T17:26:52.657Z,3.52
2023-05-02T17:29:19.412Z,3.71
2023-05-02T17:31:46.030Z,3.82
2023-05-02T17:34:12.788Z,3.32
2023-05-02T17:36:42.466Z,3.36
2023-05-02T17:39:09.557Z,3.66
2023-05-02T17:41:36.592Z,3.72
2023-05-02T17:44:04.798Z,3.70
2023-05-02T17:46:32.658Z,3.56
2023-05-02T17:48:59.947Z,3.74
2023-05-02T17:51:26.740Z,3.64
2023-05-02T17:53:53.417Z,3.66
2023-05-02T17:56:20.122Z,3.55
2023-05-02T17:58:47.145Z,3.54
2023-05-02T18:01:14.122Z,3.40
2023-05-02T18:03:41.037Z,3.59
2023-05-02T18:06:07.972Z,3.20
2023-05-02T18:08:34.837Z,3.39
2023-05-02T18:11:03.103Z,3.66
2023-05-02T18:13:29.820Z,3.55
2023-05-02T18:16:01.356Z,3.22
2023-05-02T18:18:28.000Z,3.31
2023-05-02T18:20:55.845Z,3.65
2023-05-02T18:23:22.415Z,3.43
2023-05-02T18:25:48.984Z,3.21
2023-05-02T18:28:15.563Z,3.54
2023-05-02T18:30:42.128Z,3.36
2023-05-02T18:33:09.026Z,3.33
2023-05-02T18:35:35.868Z,3.19
2023-05-02T18:38:02.476Z,3.43
2023-05-02T18:40:29.058Z,3.12
2023-05-02T18:42:55.592Z,3.37
2023-05-02T18:45:22.156Z,3.10
2023-05-02T18:47:50.974Z,3.05
2023-05-02T18:50:18.130Z,3.20
2023-05-02T18:52:44.659Z,3.35
2023-05-02T18:55:11.564Z,3.31
2023-05-02T18:57:38.174Z,3.29
2023-05-02T19:00:06.411Z,3.20
2023-05-02T19:02:33.582Z,2.95
2023-05-02T19:05:00.722Z,3.31
2023-05-02T19:07:27.759Z,3.38
2023-05-02T19:09:54.340Z,3.31
2023-05-02T19:12:20.875Z,3.43
2023-05-02T19:14:50.233Z,3.45
2023-05-02T19:17:16.960Z,3.35
2023-05-02T19:19:43.569Z,2.98
2023-05-02T19:22:10.189Z,3.45
2023-05-02T19:24:36.746Z,3.25
2023-05-02T19:27:06.711Z,3.47
2023-05-02T19:29:36.432Z,3.32
2023-05-02T19:32:04.519Z,3.41
2023-05-02T19:34:31.789Z,3.52
2023-05-02T19:36:58.311Z,3.49
2023-05-02T19:39:25.017Z,3.68
2023-05-02T19:41:51.629Z,3.75
2023-05-02T19:44:18.262Z,3.51
2023-05-02T19:46:44.851Z,3.78
2023-05-02T19:49:11.493Z,3.75
2023-05-02T19:51:38.055Z,3.67
2023-05-02T19:54:04.683Z,3.77
2023-05-02T19:56:31.239Z,3.89
2023-05-02T19:58:58.641Z,3.99
2023-05-02T20:01:26.350Z,3.57
2023-05-02T20:03:53.127Z,3.57
2023-05-02T20:06:19.777Z,3.44
2023-05-02T20:08:46.394Z,3.21
2023-05-02T20:11:13.020Z,3.23
2023-05-02T20:13:39.575Z,3.45
2023-05-02T20:16:07.399Z,3.43
2023-05-02T20:18:34.086Z,3.41
2023-05-02T20:21:00.632Z,3.43
2023-05-02T20:23:27.220Z,3.51
2023-05-02T20:25:53.721Z,3.38
2023-05-02T20:28:20.331Z,3.40
2023-05-02T20:30:47.022Z,3.35
2023-05-02T20:33:16.716Z,2.89
2023-05-02T20:35:44.717Z,2.95
2023-05-02T20:38:12.002Z,3.03
2023-05-02T20:40:42.640Z,3.01
2023-05-02T20:43:09.458Z,2.93
2023-05-02T20:45:36.091Z,2.87
2023-05-02T20:48:02.735Z,3.06
2023-05-02T20:50:29.481Z,2.76
2023-05-02T20:52:56.458Z,2.80
2023-05-02T20:55:23.233Z,2.65
2023-05-02T20:57:52.791Z,2.81
2023-05-02T21:00:22.349Z,2.96
2023-05-02T21:02:49.115Z,2.84
2023-05-02T21:05:15.889Z,2.72
2023-05-02T21:07:42.603Z,2.82
2023-05-02T21:10:09.433Z,2.71
2023-05-02T21:12:36.056Z,2.76
2023-05-02T21:15:02.746Z,2.64
2023-05-02T21:17:29.434Z,2.53
2023-05-02T21:19:56.120Z,2.44
2023-05-02T21:22:22.920Z,2.73
2023-05-02T21:24:50.184Z,2.58
2023-05-02T21:27:16.786Z,2.44
2023-05-02T21:29:43.392Z,2.57
2023-05-02T21:32:10.163Z,3.02
2023-05-02T21:34:36.832Z,2.77
2023-05-02T21:37:03.557Z,2.61
2023-05-02T21:39:30.207Z,2.65
2023-05-02T21:41:56.861Z,2.83
2023-05-02T21:44:23.429Z,2.69
2023-05-02T21:46:51.341Z,2.70
2023-05-02T21:49:18.077Z,2.65
2023-05-02T21:51:44.699Z,2.63
2023-05-02T21:54:11.654Z,2.61
2023-05-02T21:56:38.403Z,2.65
2023-05-02T21:59:05.016Z,2.56
2023-05-02T22:01:31.705Z,2.57
2023-05-02T22:03:58.529Z,2.54
2023-05-02T22:06:25.331Z,2.46
2023-05-02T22:08:52.127Z,2.50
2023-05-02T22:11:21.534Z,2.54
2023-05-02T22:13:49.542Z,2.38
2023-05-02T22:16:17.300Z,2.76
2023-05-02T22:18:44.644Z,2.95
2023-05-02T22:21:12.140Z,3.19
2023-05-02T22:23:38.963Z,3.27
2023-05-02T22:26:05.801Z,3.30
2023-05-02T22:28:32.414Z,3.22
2023-05-02T22:30:59.106Z,3.41
2023-05-02T22:33:25.734Z,3.65
2023-05-02T22:35:52.283Z,3.30
2023-05-02T22:38:19.529Z,3.26
2023-05-02T22:40:46.538Z,3.57
2023-05-02T22:43:13.262Z,3.47
2023-05-02T22:45:40.634Z,3.31
2023-05-02T22:48:07.660Z,3.42
2023-05-02T22:50:34.749Z,3.28
2023-05-02T22:53:03.609Z,3.35
2023-05-02T22:55:30.600Z,3.49
2023-05-02T22:57:58.304Z,3.64
2023-05-02T23:00:24.930Z,3.77
2023-05-02T23:02:51.889Z,3.84
2023-05-02T23:05:19.755Z,3.84
2023-05-02T23:07:46.385Z,4.40
2023-05-02T23:10:13.036Z,4.78
2023-05-02T23:12:39.858Z,4.69
2023-05-02T23:15:06.999Z,4.63
2023-05-02T23:17:37.155Z,4.81
2023-05-02T23:20:05.264Z,4.83
2023-05-02T23:22:35.617Z,4.73
2023-05-02T23:25:02.217Z,4.65
2023-05-02T23:27:28.839Z,4.16
2023-05-02T23:29:55.568Z,4.00
2023-05-02T23:32:23.583Z,4.25
2023-05-02T23:34:50.543Z,4.18
2023-05-02T23:37:17.165Z,4.19
2023-05-02T23:39:43.914Z,4.21
2023-05-02T23:42:10.504Z,4.05
2023-05-02T23:44:37.168Z,4.09
2023-05-02T23:47:03.884Z,4.03
2023-05-02T23:49:30.803Z,3.97
2023-05-02T23:51:57.384Z,3.76
2023-05-02T23:54:24.247Z,3.85
2023-05-02T23:56:52.880Z,3.90
2023-05-02T23:59:19.462Z,3.83
